sensor_id;sensor_type;location;lat;lon;timestamp;P1;durP1;ratioP1;P2;durP2;ratioP2
77868;SDS011;67231;59.144;37.934;2023-09-18T00:02:17;16.52;;;6.40;;
77868;SDS011;67231;59.144;37.934;2023-09-18T00:04:43;17.42;;;6.43;;
77868;SDS011;67231;59.144;37.934;2023-09-18T00:07:10;15.18;;;6.13;;
77868;SDS011;67231;59.144;37.934;2023-09-18T00:09:36;27.23;;;8.00;;
77868;SDS011;67231;59.144;37.934;2023-09-18T00:12:03;29.70;;;10.43;;
77868;SDS011;67231;59.144;37.934;2023-09-18T00:14:29;22.17;;;7.65;;
77868;SDS011;67231;59.144;37.934;2023-09-18T00:16:56;24.95;;;9.02;;
77868;SDS011;67231;59.144;37.934;2023-09-18T00:19:23;28.63;;;9.13;;
77868;SDS011;67231;59.144;37.934;2023-09-18T00:21:50;25.83;;;8.93;;
77868;SDS011;67231;59.144;37.934;2023-09-18T00:24:18;29.30;;;10.52;;
77868;SDS011;67231;59.144;37.934;2023-09-18T00:26:44;41.47;;;12.85;;
77868;SDS011;67231;59.144;37.934;2023-09-18T00:29:12;37.28;;;12.20;;
77868;SDS011;67231;59.144;37.934;2023-09-18T00:31:38;42.92;;;14.25;;
77868;SDS011;67231;59.144;37.934;2023-09-18T00:34:05;37.35;;;15.27;;
77868;SDS011;67231;59.144;37.934;2023-09-18T00:36:32;40.97;;;16.67;;
77868;SDS011;67231;59.144;37.934;2023-09-18T00:38:59;41.00;;;18.55;;
77868;SDS011;67231;59.144;37.934;2023-09-18T00:41:25;33.70;;;18.77;;
77868;SDS011;67231;59.144;37.934;2023-09-18T00:43:52;37.67;;;17.58;;
77868;SDS011;67231;59.144;37.934;2023-09-18T00:46:18;28.15;;;13.73;;
77868;SDS011;67231;59.144;37.934;2023-09-18T00:48:45;27.23;;;16.80;;
77868;SDS011;67231;59.144;37.934;2023-09-18T00:51:12;32.20;;;20.13;;
77868;SDS011;67231;59.144;37.934;2023-09-18T00:53:42;26.70;;;17.88;;
77868;SDS011;67231;59.144;37.934;2023-09-18T00:56:10;23.02;;;17.27;;
77868;SDS011;67231;59.144;37.934;2023-09-18T00:58:37;24.10;;;15.82;;
77868;SDS011;67231;59.144;37.934;2023-09-18T01:01:03;28.15;;;18.30;;
77868;SDS011;67231;59.144;37.934;2023-09-18T01:03:30;28.73;;;17.98;;
77868;SDS011;67231;59.144;37.934;2023-09-18T01:05:57;32.33;;;18.77;;
77868;SDS011;67231;59.144;37.934;2023-09-18T01:08:25;30.08;;;15.35;;
77868;SDS011;67231;59.144;37.934;2023-09-18T01:11:04;32.70;;;20.05;;
77868;SDS011;67231;59.144;37.934;2023-09-18T01:13:37;26.92;;;14.45;;
77868;SDS011;67231;59.144;37.934;2023-09-18T01:16:08;27.88;;;19.17;;
77868;SDS011;67231;59.144;37.934;2023-09-18T01:18:49;39.13;;;22.92;;
77868;SDS011;67231;59.144;37.934;2023-09-18T01:21:18;40.75;;;25.23;;
77868;SDS011;67231;59.144;37.934;2023-09-18T01:23:47;39.28;;;23.83;;
77868;SDS011;67231;59.144;37.934;2023-09-18T01:26:15;38.88;;;25.67;;
77868;SDS011;67231;59.144;37.934;2023-09-18T01:28:41;37.35;;;27.80;;
77868;SDS011;67231;59.144;37.934;2023-09-18T01:31:07;52.55;;;27.25;;
77868;SDS011;67231;59.144;37.934;2023-09-18T01:33:34;57.42;;;28.58;;
77868;SDS011;67231;59.144;37.934;2023-09-18T01:36:07;76.10;;;28.15;;
77868;SDS011;67231;59.144;37.934;2023-09-18T01:38:35;63.22;;;29.80;;
77868;SDS011;67231;59.144;37.934;2023-09-18T01:41:02;58.25;;;28.13;;
77868;SDS011;67231;59.144;37.934;2023-09-18T01:43:29;63.80;;;26.85;;
77868;SDS011;67231;59.144;37.934;2023-09-18T01:45:56;67.05;;;29.35;;
77868;SDS011;67231;59.144;37.934;2023-09-18T01:48:23;94.65;;;34.72;;
77868;SDS011;67231;59.144;37.934;2023-09-18T01:50:50;92.32;;;33.67;;
77868;SDS011;67231;59.144;37.934;2023-09-18T01:53:16;84.00;;;27.77;;
77868;SDS011;67231;59.144;37.934;2023-09-18T01:55:43;75.35;;;29.55;;
77868;SDS011;67231;59.144;37.934;2023-09-18T01:58:10;70.50;;;28.27;;
77868;SDS011;67231;59.144;37.934;2023-09-18T02:00:40;60.83;;;24.80;;
77868;SDS011;67231;59.144;37.934;2023-09-18T02:03:07;63.78;;;23.17;;
77868;SDS011;67231;59.144;37.934;2023-09-18T02:05:33;69.22;;;25.13;;
77868;SDS011;67231;59.144;37.934;2023-09-18T02:08:00;76.68;;;30.80;;
77868;SDS011;67231;59.144;37.934;2023-09-18T02:10:26;82.43;;;32.88;;
77868;SDS011;67231;59.144;37.934;2023-09-18T02:12:54;61.17;;;25.40;;
77868;SDS011;67231;59.144;37.934;2023-09-18T02:15:21;64.25;;;27.08;;
77868;SDS011;67231;59.144;37.934;2023-09-18T02:17:47;65.40;;;30.45;;
77868;SDS011;67231;59.144;37.934;2023-09-18T02:20:14;59.58;;;25.05;;
77868;SDS011;67231;59.144;37.934;2023-09-18T02:22:41;66.13;;;29.45;;
77868;SDS011;67231;59.144;37.934;2023-09-18T02:25:08;67.53;;;27.95;;
77868;SDS011;67231;59.144;37.934;2023-09-18T02:27:34;68.97;;;31.70;;
77868;SDS011;67231;59.144;37.934;2023-09-18T02:30:01;65.28;;;32.85;;
77868;SDS011;67231;59.144;37.934;2023-09-18T02:32:30;66.32;;;30.63;;
77868;SDS011;67231;59.144;37.934;2023-09-18T02:34:56;63.47;;;27.00;;
77868;SDS011;67231;59.144;37.934;2023-09-18T02:37:23;69.15;;;22.40;;
77868;SDS011;67231;59.144;37.934;2023-09-18T02:39:50;75.53;;;27.73;;
77868;SDS011;67231;59.144;37.934;2023-09-18T02:42:16;48.78;;;18.63;;
77868;SDS011;67231;59.144;37.934;2023-09-18T02:44:43;56.45;;;22.70;;
77868;SDS011;67231;59.144;37.934;2023-09-18T02:47:10;55.75;;;21.90;;
77868;SDS011;67231;59.144;37.934;2023-09-18T02:49:36;42.08;;;15.43;;
77868;SDS011;67231;59.144;37.934;2023-09-18T02:52:03;38.17;;;14.45;;
77868;SDS011;67231;59.144;37.934;2023-09-18T02:54:30;44.85;;;16.55;;
77868;SDS011;67231;59.144;37.934;2023-09-18T02:56:57;39.60;;;14.68;;
77868;SDS011;67231;59.144;37.934;2023-09-18T02:59:24;59.17;;;21.63;;
77868;SDS011;67231;59.144;37.934;2023-09-18T03:01:51;60.83;;;22.48;;
77868;SDS011;67231;59.144;37.934;2023-09-18T03:04:18;43.53;;;15.05;;
77868;SDS011;67231;59.144;37.934;2023-09-18T03:06:46;37.47;;;13.32;;
77868;SDS011;67231;59.144;37.934;2023-09-18T03:09:12;45.22;;;14.02;;
77868;SDS011;67231;59.144;37.934;2023-09-18T03:11:39;39.60;;;14.25;;
77868;SDS011;67231;59.144;37.934;2023-09-18T03:14:05;47.90;;;15.60;;
77868;SDS011;67231;59.144;37.934;2023-09-18T03:16:32;46.33;;;18.05;;
77868;SDS011;67231;59.144;37.934;2023-09-18T03:18:59;54.72;;;23.63;;
77868;SDS011;67231;59.144;37.934;2023-09-18T03:21:27;57.35;;;20.70;;
77868;SDS011;67231;59.144;37.934;2023-09-18T03:23:53;38.65;;;15.30;;
77868;SDS011;67231;59.144;37.934;2023-09-18T03:26:19;41.08;;;16.95;;
77868;SDS011;67231;59.144;37.934;2023-09-18T03:28:46;46.65;;;15.57;;
77868;SDS011;67231;59.144;37.934;2023-09-18T03:31:13;47.15;;;15.05;;
77868;SDS011;67231;59.144;37.934;2023-09-18T03:33:39;40.92;;;12.85;;
77868;SDS011;67231;59.144;37.934;2023-09-18T03:36:06;54.70;;;18.92;;
77868;SDS011;67231;59.144;37.934;2023-09-18T03:38:36;72.55;;;24.52;;
77868;SDS011;67231;59.144;37.934;2023-09-18T03:41:03;69.80;;;25.98;;
77868;SDS011;67231;59.144;37.934;2023-09-18T03:43:29;50.55;;;18.63;;
77868;SDS011;67231;59.144;37.934;2023-09-18T03:46:03;61.13;;;24.70;;
77868;SDS011;67231;59.144;37.934;2023-09-18T03:48:38;81.53;;;28.58;;
77868;SDS011;67231;59.144;37.934;2023-09-18T03:51:05;69.53;;;26.60;;
77868;SDS011;67231;59.144;37.934;2023-09-18T03:53:32;66.55;;;28.95;;
77868;SDS011;67231;59.144;37.934;2023-09-18T03:55:59;75.57;;;29.02;;
77868;SDS011;67231;59.144;37.934;2023-09-18T03:58:26;60.90;;;23.75;;
77868;SDS011;67231;59.144;37.934;2023-09-18T04:00:53;51.10;;;25.75;;
77868;SDS011;67231;59.144;37.934;2023-09-18T04:03:19;52.17;;;29.90;;
77868;SDS011;67231;59.144;37.934;2023-09-18T04:05:46;38.90;;;26.52;;
77868;SDS011;67231;59.144;37.934;2023-09-18T04:08:12;40.53;;;24.10;;
77868;SDS011;67231;59.144;37.934;2023-09-18T04:10:39;46.58;;;26.05;;
77868;SDS011;67231;59.144;37.934;2023-09-18T04:13:05;46.80;;;24.48;;
77868;SDS011;67231;59.144;37.934;2023-09-18T04:15:32;39.38;;;19.98;;
77868;SDS011;67231;59.144;37.934;2023-09-18T04:17:58;40.47;;;22.95;;
77868;SDS011;67231;59.144;37.934;2023-09-18T04:20:25;44.42;;;22.17;;
77868;SDS011;67231;59.144;37.934;2023-09-18T04:23:16;62.05;;;21.08;;
77868;SDS011;67231;59.144;37.934;2023-09-18T04:25:44;63.97;;;24.48;;
77868;SDS011;67231;59.144;37.934;2023-09-18T04:28:15;58.78;;;23.48;;
77868;SDS011;67231;59.144;37.934;2023-09-18T04:30:43;52.47;;;21.17;;
77868;SDS011;67231;59.144;37.934;2023-09-18T04:33:10;46.25;;;19.17;;
77868;SDS011;67231;59.144;37.934;2023-09-18T04:35:40;52.20;;;19.17;;
77868;SDS011;67231;59.144;37.934;2023-09-18T04:38:07;52.03;;;20.40;;
77868;SDS011;67231;59.144;37.934;2023-09-18T04:40:34;65.93;;;23.98;;
77868;SDS011;67231;59.144;37.934;2023-09-18T04:43:01;75.65;;;27.95;;
77868;SDS011;67231;59.144;37.934;2023-09-18T04:45:30;57.55;;;23.08;;
77868;SDS011;67231;59.144;37.934;2023-09-18T04:47:58;41.80;;;15.18;;
77868;SDS011;67231;59.144;37.934;2023-09-18T04:50:25;32.95;;;12.27;;
77868;SDS011;67231;59.144;37.934;2023-09-18T04:52:54;56.60;;;15.98;;
77868;SDS011;67231;59.144;37.934;2023-09-18T04:55:22;40.38;;;13.05;;
77868;SDS011;67231;59.144;37.934;2023-09-18T04:57:48;34.35;;;12.65;;
77868;SDS011;67231;59.144;37.934;2023-09-18T05:00:15;36.35;;;13.77;;
77868;SDS011;67231;59.144;37.934;2023-09-18T05:02:42;35.38;;;14.45;;
77868;SDS011;67231;59.144;37.934;2023-09-18T05:05:09;22.65;;;8.82;;
77868;SDS011;67231;59.144;37.934;2023-09-18T05:07:35;24.20;;;9.68;;
77868;SDS011;67231;59.144;37.934;2023-09-18T05:10:03;51.80;;;17.00;;
77868;SDS011;67231;59.144;37.934;2023-09-18T05:12:30;57.60;;;20.23;;
77868;SDS011;67231;59.144;37.934;2023-09-18T05:14:58;41.22;;;15.43;;
77868;SDS011;67231;59.144;37.934;2023-09-18T05:17:38;50.10;;;18.00;;
77868;SDS011;67231;59.144;37.934;2023-09-18T05:20:10;47.38;;;17.92;;
77868;SDS011;67231;59.144;37.934;2023-09-18T05:22:39;33.70;;;13.10;;
77868;SDS011;67231;59.144;37.934;2023-09-18T05:25:06;45.92;;;17.48;;
77868;SDS011;67231;59.144;37.934;2023-09-18T05:27:33;31.92;;;11.63;;
77868;SDS011;67231;59.144;37.934;2023-09-18T05:29:59;25.48;;;9.93;;
77868;SDS011;67231;59.144;37.934;2023-09-18T05:32:26;22.48;;;9.55;;
77868;SDS011;67231;59.144;37.934;2023-09-18T05:34:52;21.70;;;7.75;;
77868;SDS011;67231;59.144;37.934;2023-09-18T05:37:19;17.98;;;7.47;;
77868;SDS011;67231;59.144;37.934;2023-09-18T05:39:45;18.77;;;8.38;;
77868;SDS011;67231;59.144;37.934;2023-09-18T05:42:12;17.92;;;7.55;;
77868;SDS011;67231;59.144;37.934;2023-09-18T05:44:38;23.75;;;9.88;;
77868;SDS011;67231;59.144;37.934;2023-09-18T05:47:05;21.02;;;8.27;;
77868;SDS011;67231;59.144;37.934;2023-09-18T05:49:32;22.95;;;9.05;;
77868;SDS011;67231;59.144;37.934;2023-09-18T05:51:58;15.15;;;6.80;;
77868;SDS011;67231;59.144;37.934;2023-09-18T05:54:24;12.73;;;4.88;;
77868;SDS011;67231;59.144;37.934;2023-09-18T05:56:51;17.65;;;7.70;;
77868;SDS011;67231;59.144;37.934;2023-09-18T05:59:17;18.83;;;6.97;;
77868;SDS011;67231;59.144;37.934;2023-09-18T06:01:46;14.82;;;6.18;;
77868;SDS011;67231;59.144;37.934;2023-09-18T06:04:14;13.98;;;5.05;;
77868;SDS011;67231;59.144;37.934;2023-09-18T06:06:42;13.95;;;4.97;;
77868;SDS011;67231;59.144;37.934;2023-09-18T06:09:09;10.18;;;3.50;;
77868;SDS011;67231;59.144;37.934;2023-09-18T06:11:36;4.15;;;2.03;;
77868;SDS011;67231;59.144;37.934;2023-09-18T06:14:02;4.35;;;1.60;;
77868;SDS011;67231;59.144;37.934;2023-09-18T06:16:29;6.85;;;1.60;;
77868;SDS011;67231;59.144;37.934;2023-09-18T06:18:57;4.65;;;1.70;;
77868;SDS011;67231;59.144;37.934;2023-09-18T06:21:26;4.40;;;2.00;;
77868;SDS011;67231;59.144;37.934;2023-09-18T06:23:52;5.57;;;1.60;;
77868;SDS011;67231;59.144;37.934;2023-09-18T06:26:18;8.68;;;2.15;;
77868;SDS011;67231;59.144;37.934;2023-09-18T06:28:45;9.52;;;2.10;;
77868;SDS011;67231;59.144;37.934;2023-09-18T06:31:12;2.85;;;1.30;;
77868;SDS011;67231;59.144;37.934;2023-09-18T06:33:38;3.00;;;1.25;;
77868;SDS011;67231;59.144;37.934;2023-09-18T06:36:05;4.00;;;1.30;;
77868;SDS011;67231;59.144;37.934;2023-09-18T06:38:31;4.55;;;1.50;;
77868;SDS011;67231;59.144;37.934;2023-09-18T06:40:58;4.85;;;1.48;;
77868;SDS011;67231;59.144;37.934;2023-09-18T06:43:24;3.50;;;1.50;;
77868;SDS011;67231;59.144;37.934;2023-09-18T06:45:51;11.98;;;1.80;;
77868;SDS011;67231;59.144;37.934;2023-09-18T06:48:17;4.03;;;1.67;;
77868;SDS011;67231;59.144;37.934;2023-09-18T06:50:44;3.85;;;1.50;;
77868;SDS011;67231;59.144;37.934;2023-09-18T06:53:10;3.97;;;1.58;;
77868;SDS011;67231;59.144;37.934;2023-09-18T06:55:37;3.50;;;1.58;;
77868;SDS011;67231;59.144;37.934;2023-09-18T06:58:04;3.72;;;1.40;;
77868;SDS011;67231;59.144;37.934;2023-09-18T07:00:30;3.97;;;1.50;;
77868;SDS011;67231;59.144;37.934;2023-09-18T07:02:57;3.63;;;1.30;;
77868;SDS011;67231;59.144;37.934;2023-09-18T07:05:24;4.35;;;1.80;;
77868;SDS011;67231;59.144;37.934;2023-09-18T07:07:50;6.68;;;2.10;;
77868;SDS011;67231;59.144;37.934;2023-09-18T07:10:17;5.30;;;3.08;;
77868;SDS011;67231;59.144;37.934;2023-09-18T07:12:45;3.67;;;1.70;;
77868;SDS011;67231;59.144;37.934;2023-09-18T07:15:12;12.88;;;6.93;;
77868;SDS011;67231;59.144;37.934;2023-09-18T07:17:38;4.95;;;2.97;;
77868;SDS011;67231;59.144;37.934;2023-09-18T07:20:05;3.25;;;1.77;;
77868;SDS011;67231;59.144;37.934;2023-09-18T07:22:40;4.90;;;1.70;;
77868;SDS011;67231;59.144;37.934;2023-09-18T07:25:11;7.68;;;1.55;;
77868;SDS011;67231;59.144;37.934;2023-09-18T07:27:38;2.28;;;1.25;;
77868;SDS011;67231;59.144;37.934;2023-09-18T07:30:10;2.70;;;1.10;;
77868;SDS011;67231;59.144;37.934;2023-09-18T07:32:39;3.53;;;1.30;;
77868;SDS011;67231;59.144;37.934;2023-09-18T07:35:06;3.03;;;1.58;;
77868;SDS011;67231;59.144;37.934;2023-09-18T07:37:34;3.35;;;1.65;;
77868;SDS011;67231;59.144;37.934;2023-09-18T07:40:01;3.42;;;1.38;;
77868;SDS011;67231;59.144;37.934;2023-09-18T07:42:29;5.28;;;2.42;;
77868;SDS011;67231;59.144;37.934;2023-09-18T07:44:56;5.40;;;1.90;;
77868;SDS011;67231;59.144;37.934;2023-09-18T07:47:23;4.18;;;1.90;;
77868;SDS011;67231;59.144;37.934;2023-09-18T07:49:49;7.07;;;1.60;;
77868;SDS011;67231;59.144;37.934;2023-09-18T07:52:16;2.55;;;1.70;;
77868;SDS011;67231;59.144;37.934;2023-09-18T07:54:43;3.47;;;1.80;;
77868;SDS011;67231;59.144;37.934;2023-09-18T07:57:10;5.72;;;1.83;;
77868;SDS011;67231;59.144;37.934;2023-09-18T07:59:36;9.13;;;1.55;;
77868;SDS011;67231;59.144;37.934;2023-09-18T08:02:02;4.88;;;1.48;;
77868;SDS011;67231;59.144;37.934;2023-09-18T08:04:31;5.18;;;1.73;;
77868;SDS011;67231;59.144;37.934;2023-09-18T08:06:57;5.95;;;2.20;;
77868;SDS011;67231;59.144;37.934;2023-09-18T08:09:24;4.53;;;2.00;;
77868;SDS011;67231;59.144;37.934;2023-09-18T08:11:50;4.07;;;1.90;;
77868;SDS011;67231;59.144;37.934;2023-09-18T08:14:21;6.18;;;1.90;;
77868;SDS011;67231;59.144;37.934;2023-09-18T08:16:48;3.35;;;1.80;;
77868;SDS011;67231;59.144;37.934;2023-09-18T08:19:22;5.20;;;1.80;;
77868;SDS011;67231;59.144;37.934;2023-09-18T08:21:49;6.57;;;2.50;;
77868;SDS011;67231;59.144;37.934;2023-09-18T08:24:15;3.75;;;2.05;;
77868;SDS011;67231;59.144;37.934;2023-09-18T08:26:42;6.47;;;2.45;;
77868;SDS011;67231;59.144;37.934;2023-09-18T08:29:08;3.55;;;2.00;;
77868;SDS011;67231;59.144;37.934;2023-09-18T08:31:35;7.18;;;1.80;;
77868;SDS011;67231;59.144;37.934;2023-09-18T08:34:01;5.18;;;1.60;;
77868;SDS011;67231;59.144;37.934;2023-09-18T08:36:27;4.18;;;1.77;;
77868;SDS011;67231;59.144;37.934;2023-09-18T08:38:56;5.97;;;1.85;;
77868;SDS011;67231;59.144;37.934;2023-09-18T08:41:23;4.88;;;1.60;;
77868;SDS011;67231;59.144;37.934;2023-09-18T08:43:53;3.75;;;1.83;;
77868;SDS011;67231;59.144;37.934;2023-09-18T08:46:25;3.80;;;1.38;;
77868;SDS011;67231;59.144;37.934;2023-09-18T08:48:52;4.05;;;1.77;;
77868;SDS011;67231;59.144;37.934;2023-09-18T08:51:20;2.65;;;1.30;;
77868;SDS011;67231;59.144;37.934;2023-09-18T08:53:48;4.18;;;1.95;;
77868;SDS011;67231;59.144;37.934;2023-09-18T08:56:15;3.33;;;1.13;;
77868;SDS011;67231;59.144;37.934;2023-09-18T08:58:43;3.03;;;1.45;;
77868;SDS011;67231;59.144;37.934;2023-09-18T09:01:10;2.92;;;1.60;;
77868;SDS011;67231;59.144;37.934;2023-09-18T09:03:41;3.85;;;1.50;;
77868;SDS011;67231;59.144;37.934;2023-09-18T09:06:09;2.38;;;1.35;;
77868;SDS011;67231;59.144;37.934;2023-09-18T09:08:36;3.65;;;1.60;;
77868;SDS011;67231;59.144;37.934;2023-09-18T09:11:03;4.20;;;1.73;;
77868;SDS011;67231;59.144;37.934;2023-09-18T09:13:29;1.45;;;1.02;;
77868;SDS011;67231;59.144;37.934;2023-09-18T09:15:56;2.80;;;1.10;;
77868;SDS011;67231;59.144;37.934;2023-09-18T09:18:25;3.88;;;1.52;;
77868;SDS011;67231;59.144;37.934;2023-09-18T09:20:54;3.80;;;1.10;;
77868;SDS011;67231;59.144;37.934;2023-09-18T09:23:27;3.63;;;1.70;;
77868;SDS011;67231;59.144;37.934;2023-09-18T09:26:18;3.78;;;1.83;;
77868;SDS011;67231;59.144;37.934;2023-09-18T09:28:46;3.75;;;2.50;;
77868;SDS011;67231;59.144;37.934;2023-09-18T09:31:27;4.68;;;3.03;;
77868;SDS011;67231;59.144;37.934;2023-09-18T09:33:55;14.77;;;7.07;;
77868;SDS011;67231;59.144;37.934;2023-09-18T09:36:22;6.93;;;1.60;;
77868;SDS011;67231;59.144;37.934;2023-09-18T09:38:56;4.25;;;1.33;;
77868;SDS011;67231;59.144;37.934;2023-09-18T09:41:24;6.22;;;1.60;;
77868;SDS011;67231;59.144;37.934;2023-09-18T09:46:21;5.88;;;2.50;;
77868;SDS011;67231;59.144;37.934;2023-09-18T09:49:03;3.17;;;1.88;;
77868;SDS011;67231;59.144;37.934;2023-09-18T09:51:31;4.55;;;1.70;;
77868;SDS011;67231;59.144;37.934;2023-09-18T09:53:58;2.58;;;1.40;;
77868;SDS011;67231;59.144;37.934;2023-09-18T09:59:11;3.13;;;1.58;;
77868;SDS011;67231;59.144;37.934;2023-09-18T10:01:38;2.72;;;1.10;;
77868;SDS011;67231;59.144;37.934;2023-09-18T10:04:10;1.45;;;1.10;;
77868;SDS011;67231;59.144;37.934;2023-09-18T10:06:41;3.35;;;1.58;;
77868;SDS011;67231;59.144;37.934;2023-09-18T10:09:17;3.15;;;1.40;;
77868;SDS011;67231;59.144;37.934;2023-09-18T10:11:48;3.22;;;1.30;;
77868;SDS011;67231;59.144;37.934;2023-09-18T10:14:19;3.40;;;1.40;;
77868;SDS011;67231;59.144;37.934;2023-09-18T10:16:49;4.53;;;1.27;;
77868;SDS011;67231;59.144;37.934;2023-09-18T10:22:29;2.90;;;1.45;;
77868;SDS011;67231;59.144;37.934;2023-09-18T10:25:24;3.30;;;1.17;;
77868;SDS011;67231;59.144;37.934;2023-09-18T10:27:53;10.43;;;2.40;;
77868;SDS011;67231;59.144;37.934;2023-09-18T10:30:25;3.08;;;1.20;;
77868;SDS011;67231;59.144;37.934;2023-09-18T10:32:53;3.20;;;1.10;;
77868;SDS011;67231;59.144;37.934;2023-09-18T10:35:20;0.75;;;0.68;;
77868;SDS011;67231;59.144;37.934;2023-09-18T10:37:48;1.77;;;1.30;;
77868;SDS011;67231;59.144;37.934;2023-09-18T10:40:17;2.28;;;1.40;;
77868;SDS011;67231;59.144;37.934;2023-09-18T10:42:45;2.40;;;1.38;;
77868;SDS011;67231;59.144;37.934;2023-09-18T10:47:42;1.63;;;0.93;;
77868;SDS011;67231;59.144;37.934;2023-09-18T10:50:22;2.97;;;1.02;;
77868;SDS011;67231;59.144;37.934;2023-09-18T10:52:53;3.55;;;1.45;;
77868;SDS011;67231;59.144;37.934;2023-09-18T10:55:20;3.67;;;1.30;;
77868;SDS011;67231;59.144;37.934;2023-09-18T10:57:51;2.10;;;1.20;;
77868;SDS011;67231;59.144;37.934;2023-09-18T11:00:20;2.50;;;1.67;;
77868;SDS011;67231;59.144;37.934;2023-09-18T11:02:49;4.95;;;1.73;;
77868;SDS011;67231;59.144;37.934;2023-09-18T11:05:31;2.58;;;1.20;;
77868;SDS011;67231;59.144;37.934;2023-09-18T11:11:09;2.65;;;1.20;;
77868;SDS011;67231;59.144;37.934;2023-09-18T11:13:39;2.15;;;1.20;;
77868;SDS011;67231;59.144;37.934;2023-09-18T11:16:15;4.85;;;1.88;;
77868;SDS011;67231;59.144;37.934;2023-09-18T11:19:04;1.80;;;1.23;;
77868;SDS011;67231;59.144;37.934;2023-09-18T11:21:32;2.92;;;1.23;;
77868;SDS011;67231;59.144;37.934;2023-09-18T11:24:06;2.50;;;1.40;;
77868;SDS011;67231;59.144;37.934;2023-09-18T11:26:39;3.35;;;1.30;;
77868;SDS011;67231;59.144;37.934;2023-09-18T11:29:08;3.63;;;1.70;;
77868;SDS011;67231;59.144;37.934;2023-09-18T11:31:50;2.28;;;1.20;;
77868;SDS011;67231;59.144;37.934;2023-09-18T11:36:52;2.13;;;1.38;;
77868;SDS011;67231;59.144;37.934;2023-09-18T11:39:52;4.68;;;1.38;;
77868;SDS011;67231;59.144;37.934;2023-09-18T11:42:17;2.15;;;1.35;;
77868;SDS011;67231;59.144;37.934;2023-09-18T11:44:45;2.70;;;1.20;;
77868;SDS011;67231;59.144;37.934;2023-09-18T11:47:16;2.05;;;1.30;;
77868;SDS011;67231;59.144;37.934;2023-09-18T11:49:48;10.60;;;2.22;;
77868;SDS011;67231;59.144;37.934;2023-09-18T11:52:18;2.13;;;1.33;;
77868;SDS011;67231;59.144;37.934;2023-09-18T11:54:45;2.53;;;1.20;;
77868;SDS011;67231;59.144;37.934;2023-09-18T11:57:13;2.53;;;1.40;;
77868;SDS011;67231;59.144;37.934;2023-09-18T11:59:40;4.40;;;1.40;;
77868;SDS011;67231;59.144;37.934;2023-09-18T12:02:27;3.45;;;1.60;;
77868;SDS011;67231;59.144;37.934;2023-09-18T12:07:56;7.32;;;3.85;;
77868;SDS011;67231;59.144;37.934;2023-09-18T12:10:23;5.82;;;3.00;;
77868;SDS011;67231;59.144;37.934;2023-09-18T12:12:51;3.47;;;2.40;;
77868;SDS011;67231;59.144;37.934;2023-09-18T12:15:18;4.70;;;2.25;;
77868;SDS011;67231;59.144;37.934;2023-09-18T12:17:45;10.70;;;4.68;;
77868;SDS011;67231;59.144;37.934;2023-09-18T12:20:15;7.32;;;3.55;;
77868;SDS011;67231;59.144;37.934;2023-09-18T12:22:49;5.03;;;1.98;;
77868;SDS011;67231;59.144;37.934;2023-09-18T12:25:16;9.73;;;2.80;;
77868;SDS011;67231;59.144;37.934;2023-09-18T12:27:51;7.82;;;2.60;;
77868;SDS011;67231;59.144;37.934;2023-09-18T12:30:18;3.80;;;2.03;;
77868;SDS011;67231;59.144;37.934;2023-09-18T12:32:49;5.45;;;2.10;;
77868;SDS011;67231;59.144;37.934;2023-09-18T12:35:16;5.72;;;2.20;;
77868;SDS011;67231;59.144;37.934;2023-09-18T12:37:44;4.80;;;1.90;;
77868;SDS011;67231;59.144;37.934;2023-09-18T12:40:24;4.10;;;2.10;;
77868;SDS011;67231;59.144;37.934;2023-09-18T12:42:55;4.25;;;2.28;;
77868;SDS011;67231;59.144;37.934;2023-09-18T12:45:23;4.78;;;2.13;;
77868;SDS011;67231;59.144;37.934;2023-09-18T12:47:50;11.25;;;1.92;;
77868;SDS011;67231;59.144;37.934;2023-09-18T12:50:18;7.38;;;2.00;;
77868;SDS011;67231;59.144;37.934;2023-09-18T12:52:44;3.83;;;1.42;;
77868;SDS011;67231;59.144;37.934;2023-09-18T12:55:20;10.43;;;2.53;;
77868;SDS011;67231;59.144;37.934;2023-09-18T12:57:51;5.03;;;1.52;;
77868;SDS011;67231;59.144;37.934;2023-09-18T13:00:18;7.97;;;1.70;;
77868;SDS011;67231;59.144;37.934;2023-09-18T13:02:49;6.85;;;3.00;;
77868;SDS011;67231;59.144;37.934;2023-09-18T13:05:22;6.43;;;2.90;;
77868;SDS011;67231;59.144;37.934;2023-09-18T13:07:52;3.10;;;1.90;;
77868;SDS011;67231;59.144;37.934;2023-09-18T13:10:20;3.75;;;2.10;;
77868;SDS011;67231;59.144;37.934;2023-09-18T13:12:52;3.50;;;1.70;;
77868;SDS011;67231;59.144;37.934;2023-09-18T13:15:25;8.90;;;2.13;;
77868;SDS011;67231;59.144;37.934;2023-09-18T13:17:54;6.30;;;2.50;;
77868;SDS011;67231;59.144;37.934;2023-09-18T13:20:21;5.22;;;2.63;;
77868;SDS011;67231;59.144;37.934;2023-09-18T13:22:56;3.30;;;1.90;;
77868;SDS011;67231;59.144;37.934;2023-09-18T13:25:30;3.30;;;2.00;;
77868;SDS011;67231;59.144;37.934;2023-09-18T13:28:07;3.60;;;1.90;;
77868;SDS011;67231;59.144;37.934;2023-09-18T13:30:38;3.85;;;1.85;;
77868;SDS011;67231;59.144;37.934;2023-09-18T13:33:12;4.97;;;2.17;;
77868;SDS011;67231;59.144;37.934;2023-09-18T13:35:42;5.72;;;2.60;;
77868;SDS011;67231;59.144;37.934;2023-09-18T13:38:10;9.77;;;3.70;;
77868;SDS011;67231;59.144;37.934;2023-09-18T13:40:38;9.77;;;3.03;;
77868;SDS011;67231;59.144;37.934;2023-09-18T13:43:05;4.75;;;2.22;;
77868;SDS011;67231;59.144;37.934;2023-09-18T13:45:34;7.95;;;2.50;;
77868;SDS011;67231;59.144;37.934;2023-09-18T13:48:03;5.93;;;2.10;;
77868;SDS011;67231;59.144;37.934;2023-09-18T13:50:31;7.60;;;2.28;;
77868;SDS011;67231;59.144;37.934;2023-09-18T13:53:02;5.13;;;2.20;;
77868;SDS011;67231;59.144;37.934;2023-09-18T13:55:30;6.07;;;1.98;;
77868;SDS011;67231;59.144;37.934;2023-09-18T13:57:57;5.95;;;2.03;;
77868;SDS011;67231;59.144;37.934;2023-09-18T14:00:23;3.47;;;2.00;;
77868;SDS011;67231;59.144;37.934;2023-09-18T14:02:51;5.07;;;1.77;;
77868;SDS011;67231;59.144;37.934;2023-09-18T14:05:18;2.38;;;1.80;;
77868;SDS011;67231;59.144;37.934;2023-09-18T14:07:45;6.38;;;2.03;;
77868;SDS011;67231;59.144;37.934;2023-09-18T14:10:13;8.50;;;2.15;;
77868;SDS011;67231;59.144;37.934;2023-09-18T14:12:41;4.43;;;2.30;;
77868;SDS011;67231;59.144;37.934;2023-09-18T14:15:08;8.23;;;2.50;;
77868;SDS011;67231;59.144;37.934;2023-09-18T14:17:35;4.13;;;2.10;;
77868;SDS011;67231;59.144;37.934;2023-09-18T14:20:03;5.72;;;2.55;;
77868;SDS011;67231;59.144;37.934;2023-09-18T14:22:33;5.85;;;1.90;;
77868;SDS011;67231;59.144;37.934;2023-09-18T14:25:01;5.07;;;1.90;;
77868;SDS011;67231;59.144;37.934;2023-09-18T14:27:32;7.20;;;2.00;;
77868;SDS011;67231;59.144;37.934;2023-09-18T14:30:01;3.90;;;2.05;;
77868;SDS011;67231;59.144;37.934;2023-09-18T14:32:34;3.38;;;2.10;;
77868;SDS011;67231;59.144;37.934;2023-09-18T14:35:03;6.18;;;2.20;;
77868;SDS011;67231;59.144;37.934;2023-09-18T14:37:31;5.50;;;2.00;;
77868;SDS011;67231;59.144;37.934;2023-09-18T14:39:58;9.30;;;2.35;;
77868;SDS011;67231;59.144;37.934;2023-09-18T14:42:25;3.95;;;2.13;;
77868;SDS011;67231;59.144;37.934;2023-09-18T14:44:51;7.30;;;2.10;;
77868;SDS011;67231;59.144;37.934;2023-09-18T14:47:17;3.97;;;1.90;;
77868;SDS011;67231;59.144;37.934;2023-09-18T14:49:44;3.63;;;1.90;;
77868;SDS011;67231;59.144;37.934;2023-09-18T14:52:14;3.60;;;2.00;;